Time;durP1;ratioP1;P1;durP2;ratioP2;P2;SDS_P1;SDS_P2;PMS_P1;PMS_P2;Temp;Humidity;BMP_temperature;BMP_pressure;BME280_temperature;BME280_humidity;BME280_pressure;Samples;Min_cycle;Max_cycle;Signal;HPM_P1;HPM_P2
2021/06/11 00:00:17;;;;;;;10.53;5.87;;;20.80;1.50;;;;;;5010896;28;20187;-85
2021/06/11 00:02:43;;;;;;;13.57;6.20;;;20.80;1.00;;;;;;5008975;28;20177;-84
2021/06/11 00:05:09;;;;;;;13.27;5.40;;;20.90;1.00;;;;;;5005657;28;20172;-87
2021/06/11 00:07:35;;;;;;;13.37;5.97;;;20.90;1.00;;;;;;5002319;28;20181;-86
2021/06/11 00:10:03;;;;;;;11.80;5.63;;;20.80;1.00;;;;;;5003919;28;20234;-89
2021/06/11 00:12:31;;;;;;;12.90;5.87;;;20.80;1.10;;;;;;5007012;28;20184;-86
2021/06/11 00:14:58;;;;;;;10.03;5.90;;;20.70;5.50;;;;;;5008351;28;20223;-85
2021/06/11 00:17:24;;;;;;;11.93;5.67;;;20.70;8.70;;;;;;5002251;28;20588;-88
2021/06/11 00:19:50;;;;;;;11.67;5.53;;;20.70;9.50;;;;;;5006997;28;20173;-88
2021/06/11 00:22:15;;;;;;;13.07;5.57;;;20.70;7.30;;;;;;5002718;28;20195;-84
2021/06/11 00:24:41;;;;;;;10.87;5.60;;;20.90;5.20;;;;;;5003674;28;20179;-85
2021/06/11 00:27:07;;;;;;;10.27;5.53;;;20.80;4.80;;;;;;5001206;28;20251;-89
2021/06/11 00:29:35;;;;;;;12.30;6.07;;;20.80;3.60;;;;;;5000860;28;20173;-87
2021/06/11 00:32:00;;;;;;;12.20;5.30;;;20.90;4.10;;;;;;5001844;28;20193;-83
2021/06/11 00:34:26;;;;;;;10.20;5.23;;;20.90;3.00;;;;;;4997033;28;20178;-84
2021/06/11 00:36:52;;;;;;;9.13;4.93;;;20.80;3.80;;;;;;4997248;28;20214;-84
2021/06/11 00:39:18;;;;;;;10.67;5.20;;;20.80;5.00;;;;;;4997193;28;20172;-83
2021/06/11 00:41:43;;;;;;;10.13;4.67;;;20.80;5.60;;;;;;5001443;28;20173;-87
2021/06/11 00:44:09;;;;;;;8.73;5.37;;;20.90;5.10;;;;;;5009279;28;20177;-88
2021/06/11 00:46:35;;;;;;;10.60;4.97;;;20.90;2.60;;;;;;5004599;28;20173;-85
2021/06/11 00:49:00;;;;;;;9.17;4.53;;;21.10;1.00;;;;;;5001563;28;20180;-87
2021/06/11 00:51:27;;;;;;;7.53;4.83;;;21.00;1.00;;;;;;4999651;28;20255;-90
2021/06/11 00:53:54;;;;;;;10.87;4.93;;;20.80;3.50;;;;;;4998403;28;20162;-85
2021/06/11 00:56:21;;;;;;;10.37;5.00;;;20.80;9.50;;;;;;4998458;28;20228;-85
2021/06/11 00:58:46;;;;;;;8.27;4.67;;;20.70;9.60;;;;;;5000260;28;20254;-90
2021/06/11 01:01:12;;;;;;;11.70;5.10;;;20.80;10.30;;;;;;4998343;28;20213;-83
2021/06/11 01:03:38;;;;;;;8.40;4.40;;;20.90;3.70;;;;;;5013268;28;20232;-82
2021/06/11 01:06:04;;;;;;;9.13;5.07;;;20.90;1.00;;;;;;5009595;28;20169;-87
2021/06/11 01:08:31;;;;;;;11.20;5.20;;;20.90;2.60;;;;;;4996563;28;20231;-84
2021/06/11 01:10:58;;;;;;;10.17;5.40;;;20.70;6.00;;;;;;4997122;28;20177;-84
2021/06/11 01:13:24;;;;;;;12.80;5.57;;;20.70;4.90;;;;;;4996332;28;20162;-83
2021/06/11 01:15:51;;;;;;;10.73;5.50;;;20.70;5.50;;;;;;4995589;28;20196;-83
2021/06/11 01:18:19;;;;;;;10.60;5.00;;;20.70;5.50;;;;;;4995121;28;20271;-83
2021/06/11 01:20:46;;;;;;;9.67;4.87;;;20.60;12.10;;;;;;4996654;28;20176;-83
2021/06/11 01:23:59;;;;;;;11.70;5.30;;;20.40;16.70;;;;;;4996205;28;20272;-85
2021/06/11 01:26:30;;;;;;;11.70;5.53;;;20.50;14.90;;;;;;4995507;28;20195;-85
2021/06/11 01:29:02;;;;;;;13.13;5.93;;;20.50;16.40;;;;;;4996629;28;20171;-83
2021/06/11 01:31:31;;;;;;;12.50;5.13;;;20.50;10.30;;;;;;4995828;28;20263;-83
2021/06/11 01:34:02;;;;;;;9.97;5.17;;;20.60;8.60;;;;;;4996221;28;20163;-84
2021/06/11 01:36:34;;;;;;;11.23;5.20;;;20.50;8.30;;;;;;4996143;28;20203;-83
2021/06/11 01:39:03;;;;;;;12.80;5.30;;;20.40;12.90;;;;;;4994855;28;20183;-83
2021/06/11 01:41:29;;;;;;;12.23;5.47;;;20.40;16.60;;;;;;4995978;28;20176;-83
2021/06/11 01:43:55;;;;;;;11.17;5.27;;;20.30;18.00;;;;;;4995941;28;20185;-83
2021/06/11 01:46:25;;;;;;;13.27;5.63;;;20.20;19.10;;;;;;4996541;28;20174;-82
2021/06/11 01:48:52;;;;;;;10.43;5.50;;;20.10;23.10;;;;;;4995427;28;20259;-82
2021/06/11 01:51:20;;;;;;;13.27;5.33;;;20.00;24.10;;;;;;4995965;28;20234;-83
2021/06/11 01:53:46;;;;;;;8.53;5.00;;;20.00;26.20;;;;;;4996021;28;20183;-83
2021/06/11 01:56:17;;;;;;;9.60;4.90;;;19.90;28.00;;;;;;4995686;28;20306;-83
2021/06/11 01:58:43;;;;;;;13.73;6.00;;;19.90;32.30;;;;;;4995743;28;20167;-84
2021/06/11 02:01:11;;;;;;;10.97;5.03;;;19.90;33.60;;;;;;4995738;28;20171;-83
2021/06/11 02:03:40;;;;;;;10.10;5.40;;;19.80;32.90;;;;;;4995870;28;20198;-83
2021/06/11 02:06:07;;;;;;;8.37;4.77;;;20.00;29.10;;;;;;4995537;28;20190;-82
2021/06/11 02:08:34;;;;;;;12.43;5.50;;;20.00;28.20;;;;;;4994782;28;20182;-82
2021/06/11 02:11:01;;;;;;;11.20;5.27;;;20.20;26.70;;;;;;4995320;28;20178;-85
2021/06/11 02:13:28;;;;;;;11.80;5.73;;;20.00;27.40;;;;;;4997348;28;20254;-85
2021/06/11 02:15:55;;;;;;;8.93;4.83;;;19.90;31.70;;;;;;4997206;28;20286;-85
2021/06/11 02:18:22;;;;;;;12.30;6.10;;;19.90;34.10;;;;;;4998426;28;20265;-82
2021/06/11 02:20:51;;;;;;;11.43;5.53;;;19.80;35.50;;;;;;4999280;28;20175;-82
2021/06/11 02:23:18;;;;;;;11.00;5.33;;;19.70;37.40;;;;;;4995398;28;20193;-86
2021/06/11 02:25:44;;;;;;;10.17;5.23;;;19.60;40.40;;;;;;4995166;28;20159;-82
2021/06/11 02:28:17;;;;;;;14.73;5.47;;;19.70;39.20;;;;;;4995273;28;20163;-84
2021/06/11 02:30:44;;;;;;;10.43;5.20;;;19.80;35.00;;;;;;4996006;28;20175;-84
2021/06/11 02:33:13;;;;;;;13.87;5.27;;;19.70;37.60;;;;;;4995507;28;20643;-83
2021/06/11 02:35:39;;;;;;;13.40;5.33;;;19.80;35.20;;;;;;4994948;28;20207;-82
2021/06/11 02:38:05;;;;;;;11.87;5.17;;;19.70;37.70;;;;;;5002946;28;20210;-84
2021/06/11 02:40:30;;;;;;;11.00;5.07;;;19.80;35.10;;;;;;5004126;28;20175;-84
2021/06/11 02:43:06;;;;;;;9.90;5.50;;;19.80;33.40;;;;;;5004763;28;20175;-86
2021/06/11 02:46:04;;;;;;;9.93;4.50;;;19.70;36.90;;;;;;5002848;28;20338;-84
2021/06/11 02:48:46;;;;;;;9.63;5.80;;;19.40;46.00;;;;;;5010647;28;20178;-85
2021/06/11 02:51:21;;;;;;;12.87;5.27;;;19.20;53.50;;;;;;5006030;28;20171;-83
2021/06/11 02:53:48;;;;;;;11.20;5.73;;;19.20;55.50;;;;;;5005086;28;20167;-88
2021/06/11 02:56:19;;;;;;;9.83;5.00;;;19.30;57.00;;;;;;4996262;28;20613;-85
2021/06/11 02:59:27;;;;;;;14.07;5.97;;;19.20;58.40;;;;;;4995486;28;20233;-89
2021/06/11 03:02:04;;;;;;;20.23;14.63;;;19.10;57.70;;;;;;4985799;28;20163;-85
2021/06/11 03:04:31;;;;;;;24.53;21.90;;;19.10;59.40;;;;;;4995669;28;20151;-85
2021/06/11 03:06:58;;;;;;;32.23;27.33;;;19.00;61.10;;;;;;4995872;28;20171;-87
2021/06/11 03:09:26;;;;;;;25.53;23.07;;;19.00;63.60;;;;;;4994623;28;20220;-83
2021/06/11 03:11:58;;;;;;;23.07;19.27;;;18.90;64.00;;;;;;4995304;28;20697;-88
2021/06/11 03:14:26;;;;;;;17.57;14.23;;;19.10;59.70;;;;;;4996849;28;20282;-87
2021/06/11 03:16:57;;;;;;;16.37;12.07;;;19.10;58.50;;;;;;4996817;28;20210;-85
2021/06/11 03:19:27;;;;;;;16.00;9.73;;;19.00;59.20;;;;;;4998300;28;20524;-84
2021/06/11 03:21:59;;;;;;;14.00;8.70;;;18.90;62.60;;;;;;4997654;28;20173;-85
2021/06/11 03:24:53;;;;;;;17.07;7.73;;;18.90;65.70;;;;;;4998149;28;20179;-83
2021/06/11 03:27:54;;;;;;;13.50;7.30;;;18.70;72.50;;;;;;4993527;28;20582;-85
2021/06/11 03:30:26;;;;;;;15.20;8.27;;;18.60;76.80;;;;;;4995673;28;20700;-83
2021/06/11 03:33:02;;;;;;;16.93;7.03;;;18.70;73.10;;;;;;4997243;28;20255;-87
2021/06/11 03:35:34;;;;;;;12.80;7.57;;;18.80;70.60;;;;;;4999368;28;20569;-88
2021/06/11 03:38:01;;;;;;;13.53;7.63;;;18.80;71.30;;;;;;5000454;28;20636;-89
2021/06/11 03:40:36;;;;;;;13.00;7.47;;;18.90;69.60;;;;;;5011258;28;20671;-87
2021/06/11 03:43:02;;;;;;;17.67;7.57;;;19.00;68.30;;;;;;5008867;28;20162;-84
2021/06/11 03:45:29;;;;;;;14.30;7.63;;;19.00;66.60;;;;;;5014761;28;20175;-84
2021/06/11 03:48:00;;;;;;;15.63;7.50;;;18.90;68.20;;;;;;5014117;28;20170;-87
2021/06/11 03:50:27;;;;;;;15.23;7.43;;;18.90;68.30;;;;;;4999179;28;20175;-88
2021/06/11 03:52:58;;;;;;;15.00;6.27;;;18.80;71.10;;;;;;4996913;28;20175;-87
2021/06/11 03:55:26;;;;;;;13.70;7.80;;;18.80;74.00;;;;;;4998608;28;20659;-85
2021/06/11 03:58:17;;;;;;;11.37;6.70;;;18.80;73.40;;;;;;5000321;28;20181;-84
2021/06/11 04:00:44;;;;;;;11.53;6.90;;;18.80;71.50;;;;;;5004139;28;20187;-84
2021/06/11 04:03:10;;;;;;;14.53;7.67;;;18.80;72.30;;;;;;5006848;28;20170;-81
2021/06/11 04:05:37;;;;;;;15.80;8.13;;;18.90;65.90;;;;;;5000953;28;20298;-84
2021/06/11 04:08:06;;;;;;;15.20;7.60;;;18.80;66.20;;;;;;5002812;28;20194;-86
2021/06/11 04:10:53;;;;;;;16.47;8.37;;;18.50;76.30;;;;;;5001303;28;20254;-83
2021/06/11 04:13:26;;;;;;;13.33;7.60;;;18.40;80.50;;;;;;5000994;28;20190;-82
2021/06/11 04:15:54;;;;;;;16.60;7.50;;;18.50;82.80;;;;;;5001277;28;20689;-85
2021/06/11 04:18:27;;;;;;;17.13;7.87;;;18.40;82.50;;;;;;4998933;28;20548;-83
2021/06/11 04:20:58;;;;;;;15.53;7.77;;;18.60;80.60;;;;;;4998092;28;20168;-90
2021/06/11 04:23:34;;;;;;;12.77;7.87;;;18.60;78.60;;;;;;4996865;28;20726;-87
2021/06/11 04:26:04;;;;;;;16.53;7.90;;;18.50;81.40;;;;;;4998791;28;20639;-85
2021/06/11 04:28:38;;;;;;;14.90;7.30;;;18.50;81.70;;;;;;4998843;28;20156;-89
2021/06/11 04:31:04;;;;;;;13.87;8.23;;;18.70;78.70;;;;;;4999478;28;20171;-89
2021/06/11 04:33:30;;;;;;;14.20;7.77;;;18.80;68.80;;;;;;4999415;28;20174;-86
2021/06/11 04:35:56;;;;;;;13.20;8.07;;;18.70;71.30;;;;;;4999854;28;20231;-86
2021/06/11 04:38:25;;;;;;;12.20;7.50;;;18.70;75.60;;;;;;4998078;28;20636;-89
2021/06/11 04:40:52;;;;;;;13.67;8.00;;;18.80;69.20;;;;;;4997550;28;20178;-87
2021/06/11 04:43:23;;;;;;;11.37;7.30;;;18.80;70.80;;;;;;5000221;28;20187;-87
2021/06/11 04:45:48;;;;;;;10.80;7.37;;;18.80;70.40;;;;;;5003249;28;20194;-83
2021/06/11 04:48:14;;;;;;;13.40;7.60;;;18.70;71.20;;;;;;5010315;28;20179;-84
2021/06/11 04:50:39;;;;;;;13.13;7.13;;;18.70;76.70;;;;;;5006597;28;20172;-88
2021/06/11 04:53:05;;;;;;;11.50;7.17;;;18.50;80.70;;;;;;5006634;28;20580;-87
2021/06/11 04:55:31;;;;;;;12.23;6.97;;;18.60;80.50;;;;;;5009209;28;20215;-89
2021/06/11 04:57:56;;;;;;;9.30;6.47;;;18.50;81.00;;;;;;5005053;28;20171;-86
2021/06/11 05:00:24;;;;;;;9.47;6.60;;;18.70;76.30;;;;;;5010604;28;20181;-87
2021/06/11 05:02:52;;;;;;;12.13;6.37;;;18.90;67.00;;;;;;5007752;28;20230;-84
2021/06/11 05:05:17;;;;;;;9.70;6.70;;;18.90;64.50;;;;;;5003869;28;20631;-83
2021/06/11 05:07:43;;;;;;;9.57;6.10;;;18.90;63.70;;;;;;5016894;28;20187;-85
2021/06/11 05:10:09;;;;;;;8.87;5.93;;;19.00;62.30;;;;;;4998639;28;20581;-84
2021/06/11 05:12:35;;;;;;;12.03;6.40;;;19.00;59.30;;;;;;4997499;28;20171;-85
2021/06/11 05:15:05;;;;;;;10.20;6.20;;;19.20;57.80;;;;;;4997403;28;20212;-84
2021/06/11 05:17:30;;;;;;;8.43;6.10;;;19.40;47.30;;;;;;4997140;28;20171;-86
2021/06/11 05:19:56;;;;;;;8.37;6.00;;;19.40;42.90;;;;;;4997175;28;20171;-85
2021/06/11 05:22:22;;;;;;;10.53;6.27;;;19.20;47.60;;;;;;4998278;28;20181;-83
2021/06/11 05:24:48;;;;;;;8.20;5.50;;;19.10;50.30;;;;;;4997835;28;20225;-87
2021/06/11 05:27:15;;;;;;;9.37;5.53;;;18.70;62.60;;;;;;4995886;28;20191;-85
2021/06/11 05:29:41;;;;;;;9.50;6.10;;;18.40;71.30;;;;;;4997486;28;20163;-84
2021/06/11 05:32:07;;;;;;;8.73;5.30;;;18.40;73.90;;;;;;4997394;28;20195;-83
2021/06/11 05:34:42;;;;;;;9.00;5.63;;;18.30;75.60;;;;;;5014061;28;20178;-84
2021/06/11 05:37:07;;;;;;;10.43;5.70;;;18.20;76.50;;;;;;5001617;28;20191;-89
2021/06/11 05:39:33;;;;;;;7.57;5.53;;;18.20;78.00;;;;;;4996054;28;20178;-85
2021/06/11 05:41:59;;;;;;;10.50;5.60;;;18.00;82.90;;;;;;4996264;28;20646;-86
2021/06/11 05:44:25;;;;;;;9.73;5.40;;;18.10;86.40;;;;;;4992883;28;20234;-82
2021/06/11 05:46:50;;;;;;;10.83;5.40;;;18.10;90.10;;;;;;4995262;28;20179;-83
2021/06/11 05:49:22;;;;;;;7.57;5.03;;;18.40;86.50;;;;;;4995511;28;20610;-84
2021/06/11 05:51:48;;;;;;;7.10;5.30;;;18.70;81.80;;;;;;4995682;28;20176;-82
2021/06/11 05:54:14;;;;;;;12.33;4.77;;;19.10;79.10;;;;;;4994254;28;20179;-84
2021/06/11 05:56:40;;;;;;;8.10;5.23;;;19.40;61.70;;;;;;4994594;28;20198;-82
2021/06/11 05:59:05;;;;;;;9.43;4.83;;;19.70;51.40;;;;;;4997717;28;20176;-82
2021/06/11 06:01:32;;;;;;;8.47;4.57;;;20.00;39.00;;;;;;4997921;28;20225;-82
2021/06/11 06:03:57;;;;;;;6.53;4.80;;;20.10;28.10;;;;;;4994901;28;20227;-81
2021/06/11 06:06:23;;;;;;;8.63;4.77;;;20.30;23.50;;;;;;4996519;28;20177;-82
2021/06/11 06:08:49;;;;;;;9.50;4.40;;;20.30;17.70;;;;;;4994806;28;20189;-81
2021/06/11 06:11:15;;;;;;;8.07;4.63;;;20.60;15.00;;;;;;4993552;28;20312;-81
2021/06/11 06:13:41;;;;;;;8.13;4.30;;;20.70;10.30;;;;;;4997842;28;20704;-81
2021/06/11 06:16:07;;;;;;;6.33;4.50;;;20.70;6.30;;;;;;4996777;28;20567;-82
2021/06/11 06:18:33;;;;;;;7.50;4.27;;;20.80;4.60;;;;;;4994138;28;20161;-81
2021/06/11 06:20:59;;;;;;;8.90;4.47;;;20.70;1.00;;;;;;4992556;28;20172;-83
2021/06/11 06:23:25;;;;;;;10.33;6.47;;;20.70;7.50;;;;;;4991038;28;20597;-82
2021/06/11 06:25:50;;;;;;;7.57;5.03;;;20.50;13.40;;;;;;4992818;28;20259;-83
2021/06/11 06:28:16;;;;;;;8.03;4.80;;;20.50;11.40;;;;;;4993840;28;20187;-81
2021/06/11 06:30:43;;;;;;;10.87;6.40;;;20.70;12.20;;;;;;4993399;28;20176;-81
2021/06/11 06:33:08;;;;;;;7.40;5.40;;;20.80;5.30;;;;;;4993698;28;20169;-82
2021/06/11 06:35:34;;;;;;;7.43;5.20;;;20.90;1.20;;;;;;4994091;28;20200;-82
2021/06/11 06:38:00;;;;;;;10.63;5.13;;;20.90;1.00;;;;;;4994816;28;20264;-81
2021/06/11 06:40:26;;;;;;;6.90;4.40;;;20.90;1.00;;;;;;4993598;28;20231;-82
2021/06/11 06:42:51;;;;;;;6.23;4.00;;;21.10;1.00;;;;;;4994724;28;20665;-81
2021/06/11 06:45:19;;;;;;;10.43;4.40;;;21.30;1.00;;;;;;4994897;28;20564;-82
2021/06/11 06:47:46;;;;;;;11.53;4.47;;;21.20;1.00;;;;;;4995679;28;20219;-82
2021/06/11 06:50:14;;;;;;;6.33;4.27;;;20.90;1.00;;;;;;4995092;28;20226;-81
2021/06/11 06:52:40;;;;;;;9.67;3.93;;;20.80;3.80;;;;;;4995551;28;20699;-82
2021/06/11 06:55:06;;;;;;;10.73;4.33;;;20.80;3.10;;;;;;4994168;28;20210;-79
2021/06/11 06:57:32;;;;;;;8.40;4.07;;;20.70;1.60;;;;;;4996008;28;20255;-82
2021/06/11 06:59:58;;;;;;;6.50;4.80;;;20.90;1.00;;;;;;4994736;28;20224;-81
2021/06/11 07:02:24;;;;;;;8.50;4.33;;;20.80;1.00;;;;;;4993876;28;20180;-81
2021/06/11 07:04:50;;;;;;;6.07;3.77;;;20.70;9.50;;;;;;4995385;28;20192;-82
2021/06/11 07:07:16;;;;;;;7.73;4.80;;;20.60;13.20;;;;;;4996635;28;20621;-82
2021/06/11 07:09:42;;;;;;;9.50;5.10;;;20.40;14.00;;;;;;4997452;28;20671;-81
2021/06/11 07:12:09;;;;;;;8.93;4.57;;;20.30;21.10;;;;;;5000135;28;20664;-82
2021/06/11 07:14:36;;;;;;;9.13;4.50;;;20.30;24.40;;;;;;4999721;28;20162;-82
2021/06/11 07:17:03;;;;;;;7.00;4.97;;;20.40;21.90;;;;;;4998170;28;20295;-81
2021/06/11 07:19:28;;;;;;;6.17;4.27;;;20.70;16.20;;;;;;4998358;28;20683;-82
2021/06/11 07:21:54;;;;;;;6.80;4.50;;;21.10;7.00;;;;;;5009802;28;20172;-81
2021/06/11 07:24:20;;;;;;;5.83;4.40;;;21.00;1.00;;;;;;4998905;28;20219;-82
2021/06/11 07:26:47;;;;;;;6.83;4.63;;;21.20;1.00;;;;;;4998098;28;20172;-81
2021/06/11 07:29:13;;;;;;;8.83;4.50;;;20.70;3.20;;;;;;4999178;28;20571;-81
2021/06/11 07:31:39;;;;;;;7.17;4.17;;;20.60;10.30;;;;;;4998879;28;20257;-81
2021/06/11 07:34:05;;;;;;;8.20;4.10;;;20.40;18.00;;;;;;4998046;28;20227;-81
2021/06/11 07:36:33;;;;;;;7.10;4.20;;;20.40;17.80;;;;;;4997926;28;20214;-81
2021/06/11 07:38:59;;;;;;;4.93;3.53;;;20.50;14.80;;;;;;4997360;28;20172;-81
2021/06/11 07:41:25;;;;;;;4.60;3.50;;;20.70;13.20;;;;;;4996957;28;20230;-81
2021/06/11 07:43:53;;;;;;;6.00;3.67;;;20.80;6.90;;;;;;4996792;28;20182;-80
2021/06/11 07:46:19;;;;;;;5.07;3.40;;;20.90;6.60;;;;;;4998305;28;20168;-81
2021/06/11 07:48:45;;;;;;;6.83;3.33;;;21.10;1.00;;;;;;4998906;28;20159;-81
2021/06/11 07:51:10;;;;;;;3.77;2.67;;;21.20;1.00;;;;;;4996848;28;20231;-82
2021/06/11 07:53:36;;;;;;;5.93;3.00;;;21.40;1.00;;;;;;4998219;28;20173;-82
2021/06/11 07:56:02;;;;;;;4.63;2.77;;;21.70;1.00;;;;;;4998140;28;20686;-82
2021/06/11 07:58:27;;;;;;;5.70;2.60;;;21.60;1.00;;;;;;4997915;28;20165;-81
2021/06/11 08:00:53;;;;;;;6.00;2.53;;;21.50;1.00;;;;;;4997136;28;20172;-81
2021/06/11 08:03:20;;;;;;;3.77;1.90;;;21.70;1.00;;;;;;4997082;28;20192;-81
2021/06/11 08:05:46;;;;;;;3.23;1.90;;;21.70;1.00;;;;;;4997800;28;20187;-81
2021/06/11 08:08:11;;;;;;;3.97;2.23;;;21.50;1.00;;;;;;4998532;28;20276;-81
2021/06/11 08:10:37;;;;;;;6.23;2.47;;;21.40;1.00;;;;;;4997407;28;20177;-81
2021/06/11 08:13:04;;;;;;;3.53;2.30;;;21.70;1.00;;;;;;4977453;28;20199;-81
2021/06/11 08:15:30;;;;;;;5.13;2.33;;;21.80;1.00;;;;;;4988304;28;20209;-79
2021/06/11 08:17:56;;;;;;;2.87;2.20;;;21.90;1.00;;;;;;5015883;28;20264;-82
2021/06/11 08:20:22;;;;;;;4.03;2.10;;;22.00;1.00;;;;;;5015215;28;20260;-82
2021/06/11 08:22:47;;;;;;;2.93;1.80;;;22.30;1.00;;;;;;4995514;28;20247;-80
2021/06/11 08:25:13;;;;;;;3.00;1.97;;;22.10;1.00;;;;;;4996513;28;20185;-80
2021/06/11 08:27:41;;;;;;;3.87;1.93;;;22.30;1.00;;;;;;4996863;28;20219;-80
2021/06/11 08:30:10;;;;;;;4.30;1.63;;;22.40;1.00;;;;;;4997396;28;20173;-81
2021/06/11 08:32:38;;;;;;;3.67;2.13;;;22.50;1.00;;;;;;4996704;28;20170;-81
2021/06/11 08:35:05;;;;;;;4.40;2.00;;;22.60;1.00;;;;;;4996842;28;20192;-80
2021/06/11 08:37:31;;;;;;;4.63;2.20;;;22.60;1.00;;;;;;4997042;28;20645;-79
2021/06/11 08:39:57;;;;;;;4.17;1.70;;;22.50;1.00;;;;;;4994119;28;20230;-81
2021/06/11 08:42:31;;;;;;;3.20;1.77;;;22.70;1.00;;;;;;5010415;28;20264;-81
2021/06/11 08:45:03;;;;;;;2.03;1.60;;;22.90;1.00;;;;;;5016080;28;20212;-81
2021/06/11 08:47:30;;;;;;;2.60;1.80;;;23.00;1.00;;;;;;5014815;28;20189;-79
2021/06/11 08:49:57;;;;;;;3.73;1.90;;;23.10;1.00;;;;;;5015261;28;20194;-81
2021/06/11 08:52:24;;;;;;;3.03;1.40;;;23.40;1.00;;;;;;5016028;28;20292;-80
2021/06/11 08:54:51;;;;;;;3.23;1.47;;;23.40;1.00;;;;;;5016039;28;20176;-82
2021/06/11 08:57:18;;;;;;;2.07;1.40;;;23.50;1.00;;;;;;5017724;28;20191;-80
2021/06/11 08:59:47;;;;;;;2.70;1.53;;;23.40;1.00;;;;;;5021600;28;20218;-81
2021/06/11 09:02:13;;;;;;;2.60;1.60;;;23.50;1.00;;;;;;5020405;28;20364;-79
2021/06/11 09:04:57;;;;;;;3.07;1.57;;;23.70;1.00;;;;;;5022434;28;20172;-81
2021/06/11 09:07:27;;;;;;;2.67;1.57;;;23.80;1.00;;;;;;5021096;28;20186;-79
2021/06/11 09:10:02;;;;;;;3.80;1.73;;;23.70;1.00;;;;;;5017481;28;20228;-78
2021/06/11 09:12:37;;;;;;;3.33;1.60;;;23.80;1.00;;;;;;5015906;28;20175;-81
2021/06/11 09:15:18;;;;;;;3.73;2.10;;;23.80;1.00;;;;;;5014101;28;20170;-80
2021/06/11 09:17:48;;;;;;;3.53;1.93;;;23.60;1.00;;;;;;5015534;28;20628;-80
2021/06/11 09:20:19;;;;;;;4.23;1.60;;;23.50;1.00;;;;;;5015036;28;20178;-80
2021/06/11 09:22:54;;;;;;;4.23;1.70;;;23.50;1.00;;;;;;4975897;28;20184;-80
2021/06/11 09:25:23;;;;;;;4.27;1.80;;;23.40;1.00;;;;;;4974040;28;20172;-79
2021/06/11 09:27:51;;;;;;;4.20;1.60;;;23.60;1.00;;;;;;4977201;28;20178;-78
2021/06/11 09:30:17;;;;;;;2.70;1.50;;;23.70;1.00;;;;;;4978571;28;20509;-78
2021/06/11 09:32:54;;;;;;;3.50;1.90;;;23.70;1.00;;;;;;4977644;28;20176;-78
2021/06/11 09:35:29;;;;;;;3.17;2.10;;;23.80;1.00;;;;;;4975082;28;20735;-80
2021/06/11 09:38:13;;;;;;;4.13;2.23;;;23.80;1.00;;;;;;4975929;28;20185;-79
2021/06/11 09:40:40;;;;;;;4.47;2.40;;;23.70;1.00;;;;;;4975867;28;20185;-78
2021/06/11 09:43:06;;;;;;;3.10;2.20;;;23.70;1.00;;;;;;4974459;28;20183;-79
2021/06/11 09:45:32;;;;;;;2.53;1.87;;;23.60;1.00;;;;;;4974360;28;20179;-79
2021/06/11 09:47:58;;;;;;;5.20;1.93;;;23.60;1.00;;;;;;4976072;28;20218;-79
2021/06/11 09:50:34;;;;;;;3.77;1.90;;;23.70;1.00;;;;;;4975860;28;20179;-80
2021/06/11 09:53:05;;;;;;;3.80;2.60;;;23.90;1.00;;;;;;4974806;28;20172;-79
2021/06/11 09:55:40;;;;;;;3.37;2.17;;;23.90;1.00;;;;;;4975070;28;20266;-79
2021/06/11 09:58:16;;;;;;;3.40;2.43;;;24.00;1.00;;;;;;4974565;28;20246;-80
2021/06/11 10:00:56;;;;;;;3.67;2.60;;;24.10;1.00;;;;;;4974996;28;20236;-79
2021/06/11 10:03:31;;;;;;;5.10;2.60;;;24.40;1.00;;;;;;4975056;28;20719;-78
2021/06/11 10:06:03;;;;;;;3.40;2.83;;;24.40;1.00;;;;;;4974161;28;20191;-79
2021/06/11 10:08:29;;;;;;;4.70;2.80;;;24.50;1.00;;;;;;4974971;28;20312;-79
2021/06/11 10:11:00;;;;;;;4.30;3.33;;;24.70;1.00;;;;;;4975501;28;20234;-80
2021/06/11 10:13:26;;;;;;;5.10;3.00;;;24.80;1.00;;;;;;4975720;28;20647;-82
2021/06/11 10:15:55;;;;;;;5.83;3.03;;;25.00;99.90;;;;;;4995989;28;20325;-81
2021/06/11 10:18:21;;;;;;;6.07;2.90;;;25.00;99.90;;;;;;5013493;28;20646;-81
2021/06/11 10:20:47;;;;;;;3.13;2.37;;;25.00;99.90;;;;;;5008771;28;20189;-81
2021/06/11 10:23:16;;;;;;;4.53;3.47;;;25.00;99.90;;;;;;4995156;28;20193;-82
2021/06/11 10:25:48;;;;;;;5.40;2.30;;;24.90;99.90;;;;;;4995346;28;20247;-81
2021/06/11 10:28:18;;;;;;;3.30;2.97;;;25.00;99.90;;;;;;4994114;28;20181;-80
2021/06/11 10:30:46;;;;;;;3.50;3.00;;;25.20;99.90;;;;;;4995316;28;20167;-81
2021/06/11 10:33:11;;;;;;;3.03;1.97;;;25.30;99.90;;;;;;4995751;28;20193;-80
2021/06/11 10:35:39;;;;;;;2.40;1.70;;;25.20;99.90;;;;;;4993508;28;20304;-81
2021/06/11 10:38:10;;;;;;;4.60;2.70;;;25.10;99.90;;;;;;4994581;28;20184;-81
2021/06/11 10:40:38;;;;;;;4.13;2.77;;;25.00;1.00;;;;;;4996224;28;20173;-81
2021/06/11 10:43:25;;;;;;;2.97;2.17;;;24.70;99.90;;;;;;4998403;28;20180;-81
2021/06/11 10:45:55;;;;;;;2.57;1.70;;;24.80;99.90;;;;;;4999393;28;20196;-80
2021/06/11 10:48:21;;;;;;;2.50;1.73;;;24.80;12.30;;;;;;4997847;28;20267;-83
2021/06/11 10:50:47;;;;;;;3.40;1.70;;;24.90;1.00;;;;;;5000036;28;20170;-81
2021/06/11 10:53:26;;;;;;;3.57;1.70;;;24.60;66.40;;;;;;5001084;28;20688;-82
2021/06/11 10:56:15;;;;;;;3.50;1.67;;;24.60;99.90;;;;;;4999389;28;20213;-80
2021/06/11 10:58:44;;;;;;;1.57;1.30;;;24.60;99.90;;;;;;4997959;28;20639;-81
2021/06/11 11:01:29;;;;;;;1.63;1.20;;;24.80;26.00;;;;;;4999128;28;20173;-80
2021/06/11 11:04:16;;;;;;;2.57;1.20;;;24.50;99.90;;;;;;4979995;28;20176;-81
2021/06/11 11:06:42;;;;;;;2.03;1.30;;;24.60;99.90;;;;;;4987177;28;20177;-81
2021/06/11 11:09:08;;;;;;;2.70;1.83;;;24.80;7.60;;;;;;4999468;28;20174;-87
2021/06/11 11:11:46;;;;;;;2.13;1.40;;;25.00;1.00;;;;;;5000233;28;20183;-82
2021/06/11 11:14:47;;;;;;;1.87;1.20;;;24.90;19.60;;;;;;4999610;28;20224;-83
2021/06/11 11:17:13;;;;;;;3.23;1.60;;;24.60;99.90;;;;;;4958678;29;20311;-83
2021/06/11 11:19:50;;;;;;;1.67;1.00;;;24.70;99.90;;;;;;4971754;28;20222;-82
2021/06/11 11:22:30;;;;;;;3.10;1.47;;;24.70;99.90;;;;;;5010974;28;20264;-84
2021/06/11 11:24:57;;;;;;;2.30;1.40;;;24.80;1.00;;;;;;4999461;28;20217;-80
2021/06/11 11:27:24;;;;;;;4.50;2.20;;;24.90;99.90;;;;;;4999955;28;20170;-83
2021/06/11 11:29:52;;;;;;;2.47;1.70;;;25.00;1.00;;;;;;5000049;28;20169;-82
2021/06/11 11:32:19;;;;;;;3.73;2.20;;;25.20;99.90;;;;;;4998115;28;20658;-82
2021/06/11 11:34:45;;;;;;;3.57;2.13;;;25.40;99.90;;;;;;4999341;28;20169;-82
2021/06/11 11:37:14;;;;;;;5.37;1.90;;;25.50;1.00;;;;;;4998509;28;20217;-84
2021/06/11 11:39:41;;;;;;;3.17;1.70;;;25.80;1.00;;;;;;4999246;28;20160;-81
2021/06/11 11:42:11;;;;;;;3.80;1.90;;;25.80;1.00;;;;;;4998885;28;20182;-82
2021/06/11 11:44:38;;;;;;;1.90;1.47;;;25.70;99.90;;;;;;5000121;28;20181;-83
2021/06/11 11:47:04;;;;;;;3.17;1.00;;;25.30;1.00;;;;;;4996900;28;20182;-83
2021/06/11 11:49:30;;;;;;;3.93;1.93;;;25.30;99.90;;;;;;4997975;28;20266;-80
2021/06/11 11:51:56;;;;;;;2.50;1.57;;;25.50;99.90;;;;;;4997521;28;20206;-80
2021/06/11 11:54:22;;;;;;;2.37;1.50;;;25.60;1.00;;;;;;4998355;28;20296;-80
2021/06/11 11:56:47;;;;;;;2.80;1.70;;;25.40;1.00;;;;;;4998122;28;20222;-82
2021/06/11 11:59:13;;;;;;;4.43;1.40;;;25.40;1.00;;;;;;4998819;28;20159;-80
2021/06/11 12:01:41;;;;;;;3.43;1.80;;;25.40;1.00;;;;;;4996392;28;20659;-79
2021/06/11 12:04:07;;;;;;;2.93;1.33;;;25.20;1.00;;;;;;4998285;28;20167;-80
2021/06/11 12:06:34;;;;;;;2.93;1.20;;;25.30;1.00;;;;;;4997671;28;20507;-81
2021/06/11 12:09:00;;;;;;;3.80;1.53;;;25.50;1.00;;;;;;4997745;28;20178;-82
2021/06/11 12:11:26;;;;;;;3.10;1.40;;;25.70;82.40;;;;;;4996172;28;20182;-82
2021/06/11 12:13:51;;;;;;;2.93;1.40;;;25.70;1.00;;;;;;4995882;28;20222;-81
2021/06/11 12:16:18;;;;;;;3.53;1.27;;;25.90;99.90;;;;;;5011333;28;20263;-85
2021/06/11 12:18:45;;;;;;;2.70;1.57;;;25.80;99.90;;;;;;5017049;28;20201;-88
2021/06/11 12:21:11;;;;;;;2.30;1.53;;;26.00;1.00;;;;;;5009743;28;20237;-80
2021/06/11 12:23:36;;;;;;;3.43;1.70;;;26.00;91.60;;;;;;4997618;28;20662;-80
2021/06/11 12:26:03;;;;;;;2.27;1.70;;;26.10;1.00;;;;;;5002038;28;20175;-84
2021/06/11 12:28:29;;;;;;;3.10;2.20;;;26.30;1.00;;;;;;5010876;28;20166;-82
2021/06/11 12:30:55;;;;;;;3.23;1.80;;;26.40;1.00;;;;;;5002985;28;20194;-79
2021/06/11 12:33:21;;;;;;;2.73;1.93;;;26.30;99.90;;;;;;5000618;28;20186;-80
2021/06/11 12:35:48;;;;;;;2.20;1.63;;;26.40;36.80;;;;;;5017215;28;20210;-80
2021/06/11 12:38:14;;;;;;;4.63;1.83;;;26.40;1.00;;;;;;5012196;28;20257;-81
2021/06/11 12:40:44;;;;;;;4.43;1.80;;;26.10;1.00;;;;;;4998521;28;20639;-81
2021/06/11 12:43:14;;;;;;;2.53;1.63;;;26.20;1.00;;;;;;4997949;28;20699;-82
2021/06/11 12:45:41;;;;;;;3.50;1.50;;;26.30;99.90;;;;;;5000365;28;20178;-81
2021/06/11 12:48:08;;;;;;;4.17;1.53;;;26.40;99.90;;;;;;5020159;28;20189;-79
2021/06/11 12:50:34;;;;;;;7.40;2.07;;;26.20;99.90;;;;;;5017071;28;20178;-79
2021/06/11 12:52:59;;;;;;;6.00;2.10;;;26.20;1.00;;;;;;5018632;28;20273;-81
2021/06/11 12:55:26;;;;;;;4.80;2.40;;;26.00;99.90;;;;;;5018840;28;20206;-81